createdAt,value
2023-04-11T00:01:15.449Z,100.00
2023-04-11T00:03:48.081Z,100.00
2023-04-11T00:06:20.889Z,100.00
2023-04-11T00:08:53.481Z,100.00
2023-04-11T00:11:26.074Z,100.00
2023-04-11T00:13:58.469Z,100.00
2023-04-11T00:16:33.181Z,100.00
2023-04-11T00:19:06.773Z,100.00
2023-04-11T00:21:39.208Z,100.00
2023-04-11T00:24:11.601Z,100.00
2023-04-11T00:26:43.923Z,100.00
2023-04-11T00:29:16.262Z,100.00
2023-04-11T00:31:49.265Z,100.00
2023-04-11T00:34:21.842Z,100.00
2023-04-11T00:36:54.510Z,100.00
2023-04-11T00:39:29.653Z,100.00
2023-04-11T00:42:05.774Z,100.00
2023-04-11T00:44:39.519Z,100.00
2023-04-11T00:47:13.515Z,100.00
2023-04-11T00:49:45.860Z,100.00
2023-04-11T00:52:19.004Z,100.00
2023-04-11T00:54:51.511Z,100.00
2023-04-11T00:57:25.307Z,100.00
2023-04-11T01:00:00.405Z,100.00
2023-04-11T01:02:33.698Z,100.00
2023-04-11T01:05:07.309Z,100.00
2023-04-11T01:07:45.522Z,100.00
2023-04-11T01:10:18.866Z,100.00
2023-04-11T01:12:51.698Z,100.00
2023-04-11T01:15:24.177Z,100.00
2023-04-11T01:18:01.233Z,100.00
2023-04-11T01:20:33.872Z,100.00
2023-04-11T01:23:08.935Z,100.00
2023-04-11T01:25:42.606Z,100.00
2023-04-11T01:28:15.964Z,100.00
2023-04-11T01:30:48.385Z,100.00
2023-04-11T01:33:20.808Z,100.00
2023-04-11T01:35:53.904Z,100.00
2023-04-11T01:38:26.530Z,100.00
2023-04-11T01:41:00.352Z,100.00
2023-04-11T01:43:33.013Z,100.00
2023-04-11T01:46:06.951Z,100.00
2023-04-11T01:48:39.343Z,100.00
2023-04-11T01:51:11.911Z,100.00
2023-04-11T01:53:46.567Z,100.00
2023-04-11T01:56:19.658Z,100.00
2023-04-11T01:58:52.351Z,100.00
2023-04-11T02:01:25.468Z,100.00
2023-04-11T02:03:58.107Z,100.00
2023-04-11T02:06:31.459Z,100.00
2023-04-11T02:09:04.052Z,100.00
2023-04-11T02:11:37.209Z,100.00
2023-04-11T02:14:09.527Z,100.00
2023-04-11T02:16:51.905Z,100.00
2023-04-11T02:19:25.410Z,100.00
2023-04-11T02:21:57.790Z,100.00
2023-04-11T02:24:30.204Z,100.00
2023-04-11T02:27:03.639Z,100.00
2023-04-11T02:29:36.245Z,100.00
2023-04-11T02:32:08.673Z,100.00
2023-04-11T02:34:41.055Z,100.00
2023-04-11T02:37:13.374Z,100.00
2023-04-11T02:39:45.690Z,100.00
2023-04-11T02:42:18.599Z,100.00
2023-04-11T02:44:53.885Z,100.00
2023-04-11T02:47:26.326Z,100.00
2023-04-11T02:50:01.107Z,100.00
2023-04-11T02:52:41.566Z,100.00
2023-04-11T02:55:15.389Z,100.00
2023-04-11T02:57:48.635Z,100.00
2023-04-11T03:00:24.160Z,100.00
2023-04-11T03:03:05.930Z,100.00
2023-04-11T03:05:43.583Z,100.00
2023-04-11T03:08:17.149Z,100.00
2023-04-11T03:10:55.779Z,100.00
2023-04-11T03:13:30.747Z,100.00
2023-04-11T03:16:03.484Z,100.00
2023-04-11T03:18:37.498Z,100.00
2023-04-11T03:21:13.509Z,100.00
2023-04-11T03:23:49.722Z,100.00
2023-04-11T03:26:26.458Z,100.00
2023-04-11T03:29:02.579Z,100.00
2023-04-11T03:31:40.874Z,100.00
2023-04-11T03:34:13.403Z,100.00
2023-04-11T03:36:47.078Z,100.00
2023-04-11T03:39:21.041Z,100.00
2023-04-11T03:41:54.402Z,100.00
2023-04-11T03:44:27.432Z,100.00
2023-04-11T03:47:01.005Z,100.00
2023-04-11T03:49:41.116Z,100.00
2023-04-11T03:52:16.772Z,100.00
2023-04-11T03:54:51.627Z,100.00
2023-04-11T03:57:26.206Z,100.00
2023-04-11T04:00:01.187Z,100.00
2023-04-11T04:02:33.862Z,100.00
2023-04-11T04:05:10.648Z,100.00
2023-04-11T04:07:44.381Z,100.00
2023-04-11T04:10:25.969Z,100.00
2023-04-11T04:12:59.862Z,100.00
2023-04-11T04:15:40.695Z,100.00
2023-04-11T04:18:14.391Z,100.00
2023-04-11T04:20:51.636Z,100.00
2023-04-11T04:23:26.168Z,100.00
2023-04-11T04:26:17.302Z,100.00
2023-04-11T04:29:03.831Z,100.00
2023-04-11T04:31:56.207Z,100.00
2023-04-11T04:34:46.013Z,100.00
2023-04-11T04:37:23.556Z,100.00
2023-04-11T04:40:07.172Z,100.00
2023-04-11T04:42:44.188Z,100.00
2023-04-11T04:45:16.785Z,100.00
2023-04-11T04:47:49.918Z,100.00
2023-04-11T04:50:22.396Z,100.00
2023-04-11T04:52:54.885Z,100.00
2023-04-11T04:55:28.126Z,100.00
2023-04-11T04:58:00.947Z,100.00
2023-04-11T05:00:34.001Z,100.00
2023-04-11T05:03:10.169Z,100.00
2023-04-11T05:05:42.755Z,100.00
2023-04-11T05:08:18.015Z,100.00
2023-04-11T05:10:50.418Z,100.00
2023-04-11T05:13:22.842Z,100.00
2023-04-11T05:15:55.166Z,100.00
2023-04-11T05:18:31.672Z,100.00
2023-04-11T05:21:04.921Z,100.00
2023-04-11T05:23:41.829Z,100.00
2023-04-11T05:26:14.680Z,100.00
2023-04-11T05:28:47.277Z,100.00
2023-04-11T05:31:25.368Z,100.00
2023-04-11T05:33:58.690Z,100.00
2023-04-11T05:36:32.917Z,100.00
2023-04-11T05:39:06.426Z,100.00
2023-04-11T05:41:39.582Z,100.00
2023-04-11T05:44:11.865Z,100.00
2023-04-11T05:46:44.216Z,100.00
2023-04-11T05:49:17.180Z,100.00
2023-04-11T05:51:49.535Z,100.00
2023-04-11T05:54:32.364Z,100.00
2023-04-11T05:57:06.716Z,100.00
2023-04-11T05:59:39.115Z,100.00
2023-04-11T06:02:11.748Z,100.00
2023-04-11T06:04:45.219Z,100.00
2023-04-11T06:07:17.727Z,100.00
2023-04-11T06:09:50.179Z,100.00
2023-04-11T06:12:22.464Z,100.00
2023-04-11T06:14:54.766Z,100.00
2023-04-11T06:17:27.134Z,100.00
2023-04-11T06:20:01.758Z,100.00
2023-04-11T06:22:35.296Z,100.00
2023-04-11T06:25:08.633Z,100.00
2023-04-11T06:27:41.005Z,100.00
2023-04-11T06:30:13.930Z,100.00
2023-04-11T06:32:46.302Z,100.00
2023-04-11T06:35:19.775Z,100.00
2023-04-11T06:37:52.462Z,100.00
2023-04-11T06:40:24.759Z,100.00
2023-04-11T06:42:59.470Z,100.00
2023-04-11T06:45:31.839Z,100.00
2023-04-11T06:48:04.945Z,100.00
2023-04-11T06:50:38.508Z,100.00
2023-04-11T06:53:10.787Z,100.00
2023-04-11T06:55:43.109Z,100.00
2023-04-11T06:58:15.824Z,100.00
2023-04-11T07:00:48.108Z,100.00
2023-04-11T07:03:20.472Z,100.00
2023-04-11T07:05:53.486Z,100.00
2023-04-11T07:08:25.731Z,100.00
2023-04-11T07:10:58.020Z,100.00
2023-04-11T07:13:30.477Z,99.61
2023-04-11T07:16:02.801Z,100.00
2023-04-11T07:18:35.144Z,100.00
2023-04-11T07:21:11.184Z,99.38
2023-04-11T07:23:44.043Z,99.78
2023-04-11T07:26:17.172Z,99.61
2023-04-11T07:28:50.450Z,100.00
2023-04-11T07:31:22.872Z,99.60
2023-04-11T07:33:55.652Z,97.32
2023-04-11T07:36:28.837Z,95.64
2023-04-11T07:39:01.345Z,97.15
2023-04-11T07:41:33.680Z,97.82
2023-04-11T07:44:07.026Z,94.37
2023-04-11T07:46:39.356Z,95.59
2023-04-11T07:49:11.718Z,95.20
2023-04-11T07:51:44.815Z,91.46
2023-04-11T07:54:17.156Z,94.09
2023-04-11T07:56:49.424Z,93.83
2023-04-11T07:59:21.710Z,91.03
2023-04-11T08:02:04.127Z,87.11
2023-04-11T08:04:37.204Z,85.38
2023-04-11T08:07:10.740Z,84.59
2023-04-11T08:09:43.063Z,81.74
2023-04-11T08:12:16.022Z,81.50
2023-04-11T08:14:48.290Z,81.47
2023-04-11T08:17:27.870Z,80.68
2023-04-11T08:20:02.675Z,79.02
2023-04-11T08:22:35.821Z,77.98
2023-04-11T08:25:09.208Z,79.57
2023-04-11T08:27:41.545Z,81.29
2023-04-11T08:30:15.081Z,82.14
2023-04-11T08:32:47.512Z,79.57
2023-04-11T08:35:19.940Z,80.20
2023-04-11T08:37:52.979Z,75.12
2023-04-11T08:40:27.001Z,77.47
2023-04-11T08:42:59.764Z,77.31
2023-04-11T08:45:32.043Z,77.29
2023-04-11T08:48:05.816Z,76.49
2023-04-11T08:50:39.499Z,78.41
2023-04-11T08:53:14.086Z,79.02
2023-04-11T08:55:46.822Z,78.39
2023-04-11T08:58:19.519Z,76.94
2023-04-11T09:00:51.820Z,80.80
2023-04-11T09:03:24.185Z,77.15
2023-04-11T09:05:56.571Z,74.82
2023-04-11T09:08:38.022Z,71.07
2023-04-11T09:11:10.804Z,72.70
2023-04-11T09:13:43.092Z,76.65
2023-04-11T09:16:15.840Z,74.62
2023-04-11T09:18:48.264Z,74.16
2023-04-11T09:21:20.572Z,73.72
2023-04-11T09:23:54.523Z,69.38
2023-04-11T09:26:28.983Z,69.22
2023-04-11T09:29:01.335Z,72.25
2023-04-11T09:31:40.987Z,67.36
2023-04-11T09:34:13.219Z,67.01
2023-04-11T09:36:54.228Z,68.25
2023-04-11T09:39:28.771Z,68.43
2023-04-11T09:42:02.491Z,63.00
2023-04-11T09:44:36.317Z,60.81
2023-04-11T09:47:09.012Z,62.52
2023-04-11T09:49:42.580Z,63.85
2023-04-11T09:52:15.741Z,62.28
2023-04-11T09:54:50.707Z,57.99
2023-04-11T09:57:23.564Z,58.27
2023-04-11T09:59:56.569Z,59.23
2023-04-11T10:02:29.150Z,61.23
2023-04-11T10:05:03.591Z,60.06
2023-04-11T10:07:45.190Z,54.99
2023-04-11T10:10:23.496Z,53.87
2023-04-11T10:12:55.814Z,55.55
2023-04-11T10:15:29.287Z,57.05
2023-04-11T10:18:09.524Z,57.40
2023-04-11T10:20:44.532Z,58.20
2023-04-11T10:23:16.990Z,56.46
2023-04-11T10:25:59.583Z,55.19
2023-04-11T10:28:34.454Z,54.85
2023-04-11T10:31:09.312Z,56.45
2023-04-11T10:34:11.707Z,54.82
2023-04-11T10:37:03.182Z,57.00
2023-04-11T10:40:09.086Z,55.21
2023-04-11T10:42:43.232Z,55.71
2023-04-11T10:45:17.620Z,55.57
2023-04-11T10:48:07.365Z,55.02
2023-04-11T10:50:42.257Z,55.43
2023-04-11T10:53:41.619Z,53.92
2023-04-11T10:56:15.027Z,54.93
2023-04-11T10:58:51.154Z,54.02
2023-04-11T11:01:31.820Z,54.52
2023-04-11T11:04:10.339Z,53.53
2023-04-11T11:06:50.944Z,52.41
2023-04-11T11:09:28.095Z,51.96
2023-04-11T11:12:08.280Z,53.21
2023-04-11T11:14:42.850Z,52.62
2023-04-11T11:17:16.545Z,50.24
2023-04-11T11:19:48.908Z,50.38
2023-04-11T11:22:24.944Z,47.95
2023-04-11T11:25:07.546Z,50.68
2023-04-11T11:27:39.856Z,49.75
2023-04-11T11:30:15.090Z,50.89
2023-04-11T11:32:47.424Z,50.34
2023-04-11T11:35:20.109Z,50.79
2023-04-11T11:37:53.193Z,50.29
2023-04-11T11:40:25.728Z,51.65
2023-04-11T11:42:58.065Z,51.63
2023-04-11T11:45:32.784Z,52.82
2023-04-11T11:48:05.634Z,53.51
2023-04-11T11:50:37.978Z,54.02
2023-04-11T11:53:15.042Z,53.24
2023-04-11T11:55:47.610Z,51.82
2023-04-11T11:58:20.520Z,52.13
2023-04-11T12:00:54.036Z,49.79
2023-04-11T12:03:29.003Z,50.33
2023-04-11T12:06:01.496Z,49.38
2023-04-11T12:08:33.818Z,48.52
2023-04-11T12:11:12.047Z,50.92
2023-04-11T12:13:45.419Z,47.58
2023-04-11T12:16:21.534Z,46.36
2023-04-11T12:18:57.945Z,47.22
2023-04-11T12:21:30.867Z,48.93
2023-04-11T12:24:03.548Z,49.98
2023-04-11T12:26:36.105Z,47.27
2023-04-11T12:29:09.360Z,46.91
2023-04-11T12:31:44.449Z,47.46
2023-04-11T12:34:17.683Z,48.79
2023-04-11T12:36:50.030Z,49.04
2023-04-11T12:39:22.417Z,49.09
2023-04-11T12:41:54.762Z,47.54
2023-04-11T12:44:27.105Z,49.04
2023-04-11T12:47:00.292Z,45.31
2023-04-11T12:49:32.817Z,46.53
2023-04-11T12:52:05.561Z,46.24
2023-04-11T12:54:37.937Z,46.50
2023-04-11T12:57:11.721Z,48.51
2023-04-11T12:59:44.081Z,45.68
2023-04-11T13:02:17.287Z,47.07
2023-04-11T13:04:52.807Z,47.14
2023-04-11T13:07:25.241Z,48.60
2023-04-11T13:09:57.650Z,48.11
2023-04-11T13:12:30.678Z,49.22
2023-04-11T13:15:03.309Z,50.29
2023-04-11T13:17:36.468Z,48.64
2023-04-11T13:20:10.678Z,46.40
2023-04-11T13:22:43.581Z,46.30
2023-04-11T13:25:15.969Z,47.41
2023-04-11T13:27:48.322Z,46.00
2023-04-11T13:30:20.932Z,47.10
2023-04-11T13:32:54.002Z,45.09
2023-04-11T13:35:27.319Z,46.25
2023-04-11T13:38:00.104Z,46.88
2023-04-11T13:40:32.783Z,44.65
2023-04-11T13:43:05.217Z,42.60
2023-04-11T13:45:37.946Z,43.04
2023-04-11T13:48:11.228Z,43.23
2023-04-11T13:50:43.539Z,43.79
2023-04-11T13:53:15.989Z,43.79
2023-04-11T13:55:48.600Z,44.27
2023-04-11T13:58:21.029Z,46.16
2023-04-11T14:00:53.477Z,46.22
2023-04-11T14:03:29.525Z,46.01
2023-04-11T14:06:02.761Z,45.64
2023-04-11T14:08:36.484Z,47.48
2023-04-11T14:11:08.790Z,45.63
2023-04-11T14:13:41.208Z,46.83
2023-04-11T14:16:13.579Z,47.36
2023-04-11T14:18:46.596Z,47.84
2023-04-11T14:21:19.054Z,48.59
2023-04-11T14:23:51.491Z,48.04
2023-04-11T14:26:23.885Z,46.56
2023-04-11T14:28:56.205Z,47.10
2023-04-11T14:31:28.693Z,46.56
2023-04-11T14:34:01.798Z,47.25
2023-04-11T14:36:34.164Z,47.55
2023-04-11T14:39:06.718Z,47.71
2023-04-11T14:41:39.307Z,48.01
2023-04-11T14:44:12.220Z,47.81
2023-04-11T14:46:44.660Z,48.26
2023-04-11T14:49:17.821Z,48.84
2023-04-11T14:51:50.387Z,49.54
2023-04-11T14:54:23.821Z,50.50
2023-04-11T14:56:57.120Z,50.45
2023-04-11T14:59:30.238Z,49.93
2023-04-11T15:02:02.814Z,49.32
2023-04-11T15:04:36.009Z,50.52
2023-04-11T15:07:08.327Z,49.17
2023-04-11T15:09:40.805Z,50.72
2023-04-11T15:12:13.203Z,52.03
2023-04-11T15:14:45.656Z,51.79
2023-04-11T15:17:18.102Z,52.53
2023-04-11T15:19:51.128Z,51.53
2023-04-11T15:22:23.392Z,52.38
2023-04-11T15:24:55.620Z,51.86
2023-04-11T15:27:28.030Z,53.03
2023-04-11T15:30:01.702Z,52.38
2023-04-11T15:32:34.544Z,52.25
2023-04-11T15:35:08.402Z,53.42
2023-04-11T15:37:41.266Z,52.34
2023-04-11T15:40:14.603Z,52.65
2023-04-11T15:42:49.006Z,53.53
2023-04-11T15:45:21.357Z,53.28
2023-04-11T15:47:53.813Z,52.28
2023-04-11T15:50:28.316Z,53.12
2023-04-11T15:53:00.947Z,52.19
2023-04-11T15:55:34.797Z,53.22
2023-04-11T15:58:07.406Z,54.21
2023-04-11T16:00:41.574Z,54.11
2023-04-11T16:03:15.771Z,54.49
2023-04-11T16:05:52.241Z,53.75
2023-04-11T16:08:25.476Z,53.99
2023-04-11T16:10:57.759Z,54.07
2023-04-11T16:13:30.175Z,55.16
2023-04-11T16:16:02.589Z,55.25
2023-04-11T16:18:35.127Z,55.81
2023-04-11T16:21:13.110Z,56.34
2023-04-11T16:23:45.422Z,55.36
2023-04-11T16:26:17.866Z,56.80
2023-04-11T16:28:50.468Z,56.01
2023-04-11T16:31:24.251Z,57.01
2023-04-11T16:33:56.845Z,57.10
2023-04-11T16:36:30.259Z,57.62
2023-04-11T16:39:03.658Z,57.28
2023-04-11T16:41:35.979Z,57.96
2023-04-11T16:44:10.603Z,58.68
2023-04-11T16:46:43.635Z,58.52
2023-04-11T16:49:16.094Z,59.05
2023-04-11T16:51:49.108Z,59.05
2023-04-11T16:54:21.418Z,59.07
2023-04-11T16:56:53.763Z,58.64
2023-04-11T16:59:27.445Z,58.69
2023-04-11T17:02:00.180Z,59.05
2023-04-11T17:04:33.113Z,59.01
2023-04-11T17:07:06.369Z,59.33
2023-04-11T17:09:38.697Z,59.06
2023-04-11T17:12:11.078Z,59.50
2023-04-11T17:14:44.947Z,58.99
2023-04-11T17:17:17.241Z,59.42
2023-04-11T17:19:50.647Z,59.33
2023-04-11T17:22:23.675Z,61.21
2023-04-11T17:24:56.015Z,60.99
2023-04-11T17:27:29.231Z,62.04
2023-04-11T17:30:03.343Z,62.28
2023-04-11T17:32:36.898Z,63.68
2023-04-11T17:35:11.034Z,65.13
2023-04-11T17:37:44.491Z,65.90
2023-04-11T17:40:16.945Z,66.38
2023-04-11T17:42:49.384Z,66.35
2023-04-11T17:45:21.746Z,67.42
2023-04-11T17:47:54.142Z,67.51
2023-04-11T17:50:26.703Z,67.17
2023-04-11T17:52:59.912Z,66.64
2023-04-11T17:55:32.680Z,66.74
2023-04-11T17:58:05.446Z,66.83
2023-04-11T18:00:48.494Z,66.15
2023-04-11T18:03:27.917Z,67.13
2023-04-11T18:06:00.914Z,67.87
2023-04-11T18:08:49.640Z,68.75
2023-04-11T18:11:23.165Z,68.42
2023-04-11T18:13:55.913Z,68.98
2023-04-11T18:16:28.554Z,69.65
2023-04-11T18:19:00.917Z,69.26
2023-04-11T18:21:33.196Z,69.67
2023-04-11T18:24:06.642Z,71.56
2023-04-11T18:26:38.944Z,71.42
2023-04-11T18:29:11.210Z,70.62
2023-04-11T18:31:43.555Z,71.02
2023-04-11T18:34:16.068Z,70.85
2023-04-11T18:36:49.323Z,70.45
2023-04-11T18:39:22.938Z,70.53
2023-04-11T18:41:55.279Z,71.32
2023-04-11T18:44:27.821Z,71.65
2023-04-11T18:47:03.012Z,71.00
2023-04-11T18:49:37.339Z,71.07
2023-04-11T18:52:10.076Z,70.98
2023-04-11T18:54:44.082Z,71.34
2023-04-11T18:57:16.430Z,72.20
2023-04-11T18:59:50.564Z,71.90
2023-04-11T19:02:24.131Z,71.75
2023-04-11T19:04:56.975Z,72.05
2023-04-11T19:07:30.760Z,71.49
2023-04-11T19:10:05.518Z,71.44
2023-04-11T19:12:38.262Z,72.12
2023-04-11T19:15:11.994Z,71.62
2023-04-11T19:17:44.544Z,71.68
2023-04-11T19:20:18.338Z,72.18
2023-04-11T19:22:51.061Z,71.29
2023-04-11T19:25:24.304Z,70.94
2023-04-11T19:27:56.784Z,70.61
2023-04-11T19:30:29.185Z,71.20
2023-04-11T19:33:02.281Z,72.03
2023-04-11T19:35:34.785Z,71.48
2023-04-11T19:38:07.246Z,71.86
2023-04-11T19:40:40.366Z,72.92
2023-04-11T19:43:12.792Z,74.28
2023-04-11T19:45:45.720Z,74.99
2023-04-11T19:48:18.166Z,74.41
2023-04-11T19:50:51.537Z,74.61
2023-04-11T19:53:24.035Z,74.66
2023-04-11T19:55:58.947Z,75.20
2023-04-11T19:58:31.885Z,75.72
2023-04-11T20:01:04.804Z,77.03
2023-04-11T20:03:37.364Z,76.72
2023-04-11T20:06:11.575Z,78.28
2023-04-11T20:08:44.028Z,77.99
2023-04-11T20:11:21.343Z,77.52
2023-04-11T20:13:53.790Z,78.42
2023-04-11T20:16:26.098Z,78.24
2023-04-11T20:19:01.108Z,78.98
2023-04-11T20:21:33.490Z,78.68
2023-04-11T20:24:08.758Z,79.78
2023-04-11T20:26:41.790Z,79.71
2023-04-11T20:29:17.140Z,79.78
2023-04-11T20:31:49.462Z,79.91
2023-04-11T20:34:21.825Z,79.98
2023-04-11T20:36:55.157Z,80.56
2023-04-11T20:39:27.464Z,81.29
2023-04-11T20:42:01.082Z,81.61
2023-04-11T20:44:35.296Z,81.61
2023-04-11T20:47:08.416Z,80.72
2023-04-11T20:49:40.865Z,80.27
2023-04-11T20:52:13.211Z,81.02
2023-04-11T20:54:45.492Z,80.57
2023-04-11T20:57:18.442Z,79.85
2023-04-11T20:59:50.749Z,79.91
2023-04-11T21:02:23.434Z,80.82
2023-04-11T21:04:55.864Z,80.61
2023-04-11T21:07:28.150Z,80.65
2023-04-11T21:10:01.265Z,81.67
2023-04-11T21:12:34.693Z,81.61
2023-04-11T21:15:08.212Z,81.87
2023-04-11T21:17:40.552Z,81.24
2023-04-11T21:20:17.235Z,81.46
2023-04-11T21:22:52.044Z,81.95
2023-04-11T21:25:24.647Z,82.91
2023-04-11T21:27:57.612Z,82.84
2023-04-11T21:30:30.257Z,82.96
2023-04-11T21:33:02.606Z,82.82
2023-04-11T21:35:34.983Z,82.68
2023-04-11T21:38:07.958Z,83.90
2023-04-11T21:40:40.283Z,84.09
2023-04-11T21:43:13.261Z,83.66
2023-04-11T21:45:45.575Z,83.11
2023-04-11T21:48:18.000Z,84.00
2023-04-11T21:50:50.321Z,83.79
2023-04-11T21:53:22.591Z,83.48
2023-04-11T21:55:54.962Z,83.95
2023-04-11T21:58:29.885Z,84.95
2023-04-11T22:01:03.145Z,84.39
2023-04-11T22:03:39.456Z,85.06
2023-04-11T22:06:11.921Z,85.56
2023-04-11T22:08:49.468Z,86.19
2023-04-11T22:11:21.750Z,85.58
2023-04-11T22:13:56.807Z,84.74
2023-04-11T22:16:30.878Z,84.46
2023-04-11T22:19:03.309Z,83.77
2023-04-11T22:21:35.743Z,84.01
2023-04-11T22:24:08.652Z,83.83
2023-04-11T22:26:48.174Z,84.02
2023-04-11T22:29:21.444Z,84.19
2023-04-11T22:31:53.726Z,84.63
2023-04-11T22:34:26.098Z,85.20
2023-04-11T22:36:58.571Z,85.05
2023-04-11T22:39:30.930Z,86.06
2023-04-11T22:42:04.103Z,85.49
2023-04-11T22:44:37.088Z,85.88
2023-04-11T22:47:15.312Z,85.42
2023-04-11T22:49:47.605Z,85.66
2023-04-11T22:52:25.232Z,85.38
2023-04-11T22:54:57.504Z,85.87
2023-04-11T22:57:30.053Z,85.34
2023-04-11T23:00:06.643Z,86.51
2023-04-11T23:02:39.555Z,85.83
2023-04-11T23:05:11.923Z,86.91
2023-04-11T23:07:44.241Z,85.40
2023-04-11T23:10:18.162Z,86.13
2023-04-11T23:12:50.983Z,85.40
2023-04-11T23:15:23.924Z,84.99
2023-04-11T23:17:56.365Z,85.47
2023-04-11T23:20:28.716Z,86.24
2023-04-11T23:23:01.443Z,85.92
2023-04-11T23:25:38.084Z,86.33
2023-04-11T23:28:10.360Z,86.30
2023-04-11T23:30:43.858Z,85.31
2023-04-11T23:33:16.235Z,85.59
2023-04-11T23:35:48.583Z,84.37
2023-04-11T23:38:22.739Z,84.08
2023-04-11T23:40:55.565Z,85.54
2023-04-11T23:43:27.852Z,85.82
2023-04-11T23:46:00.957Z,85.22
2023-04-11T23:48:33.275Z,86.15
2023-04-11T23:51:06.605Z,87.23
2023-04-11T23:53:38.890Z,87.25
2023-04-11T23:56:12.106Z,88.68
2023-04-11T23:58:44.410Z,89.17
